Flight Track Log - Related Links

Times and Time Zones

All times are in EDT time to prevent confusion due to time zone crossing. See the N762NC flight status page for this flight to view local times or setup timezone preferences in your user account.

Time Position Orientation Groundspeed Altitude Reporting Facility
EDT Latitude Longitude Course Direction KTS MPH feet Rate Location/Type
Mon 04:30:28 PM 33.6500 -84.3667 59° Northeast 176 203 2,500  Level Atlanta TRACON
Mon 04:31:28 PM 33.6833 -84.3000 59° Northeast 270 311 4,400 2,150 Climbing Atlanta TRACON
Mon 04:32:28 PM 33.7500 -84.2667 23° Northeast 279 321 6,800 2,300 Climbing Atlanta TRACON
Mon 04:33:28 PM 33.8167 -84.2667 360° North 288 331 9,000 1,618 Climbing Atlanta TRACON
Mon 04:35:00 PM 33.8292 -84.4014 276° West 270 311 10,900 1,539 Climbing Atlanta Center
Mon 04:36:00 PM 33.8058 -84.5164 256° West 326 375 12,900 1,950 Climbing Atlanta Center
Mon 04:37:00 PM 33.7864 -84.6411 259° West 345 397 14,800 1,900 Climbing Atlanta Center
Mon 04:38:00 PM 33.7733 -84.7611 263° West 357 411 16,700 1,700 Climbing Atlanta Center
Mon 04:39:00 PM 33.7892 -84.8811 279° West 369 425 18,200 1,550 Climbing Atlanta Center
Mon 04:40:00 PM 33.8175 -85.0014 286° West 369 425 19,800 1,550 Climbing Atlanta Center
Mon 04:41:00 PM 33.8436 -85.1242 284° West 376 433 21,300 1,100 Climbing Atlanta Center
Mon 04:42:00 PM 33.8717 -85.2522 285° West 382 440 22,000 350 Climbing Atlanta Center
Mon 04:43:00 PM 33.8978 -85.3753 284° West 400 460 22,000  Level Atlanta Center
Mon 04:44:00 PM 33.9253 -85.5083 284° West 418 481 22,000 -50 Level Atlanta Center
Mon 04:45:00 PM 33.9592 -85.6492 286° West 423 487 21,900  Descending Atlanta Center
Mon 04:46:00 PM 34.0306 -85.7608 308° West 420 483 22,000 -2,175 Climbing Atlanta Center
Mon 04:48:00 PM 34.0825 -85.8160 319° Northwest  Level FlightAware Approximate
Mon 04:49:00 PM 34.2806 -86.0839 319° Northwest 432 497 13,200  Level Memphis Center
Mon 04:50:00 PM 34.3692 -86.1728 320° Northwest 413 475 11,300 -1,150 Descending Memphis Center
Mon 04:51:00 PM 34.4469 -86.2494 321° Northwest 389 448 10,900 -400 Descending Memphis Center
Mon 04:52:00 PM 34.5222 -86.3214 322° Northwest 364 419 10,500 -700 Descending Memphis Center
Mon 04:53:00 PM 34.5847 -86.3814 322° Northwest 324 373 9,500 -800 Descending Memphis Center
Mon 04:54:00 PM 34.6431 -86.4469 317° Northwest 291 335 8,900 -750 Descending Memphis Center
Mon 04:55:00 PM 34.6975 -86.5153 314° West 280 322 8,000 -1,150 Descending Memphis Center
Mon 04:56:00 PM 34.7536 -86.5808 316° Northwest 280 322 6,600 -1,550 Descending Memphis Center
Mon 04:57:00 PM 34.8017 -86.6494 310° West 274 315 4,900 -1,550 Descending Memphis Center
Mon 04:58:00 PM 34.8311 -86.7292 294° West 268 308 3,500 -950 Descending Memphis Center
Mon 04:59:00 PM 34.7822 -86.7692 214° Southwest 160 184 3,000 -750 Descending Memphis Center
Mon 05:00:00 PM 34.7278 -86.7664 178° South 144 166 2,000 -900 Descending Memphis Center
Mon 05:01:00 PM 34.6861 -86.7683 182° South 154 177 1,200 -600 Descending Memphis Center
Mon 05:02:00 PM 34.6489 -86.7747 188° South 154 177 800 -400 Descending Memphis Center
Mon 05:05:00 PM 34.6333 -86.7667 209° Southwest  Level FlightAware Approximate

Login

Don't have an account? Register now (free) for customized features, flight alerts, and more!